createdAt,value
2023-01-04T00:01:59.215Z,2.33
2023-01-04T00:04:26.664Z,4.65
2023-01-04T00:06:54.052Z,3.35
2023-01-04T00:09:21.533Z,2.47
2023-01-04T00:11:48.910Z,3.53
2023-01-04T00:14:17.146Z,2.50
2023-01-04T00:16:45.905Z,2.97
2023-01-04T00:19:13.338Z,2.80
2023-01-04T00:21:40.782Z,2.42
2023-01-04T00:24:09.452Z,2.63
2023-01-04T00:26:36.922Z,3.30
2023-01-04T00:29:05.350Z,3.92
2023-01-04T00:31:32.902Z,2.10
2023-01-04T00:34:02.738Z,2.05
2023-01-04T00:36:30.217Z,2.83
2023-01-04T00:39:12.276Z,2.45
2023-01-04T00:44:27.837Z,3.28
2023-01-04T00:46:55.253Z,2.28
2023-01-04T00:49:23.973Z,2.20
2023-01-04T00:51:51.351Z,2.20
2023-01-04T00:54:18.832Z,2.40
2023-01-04T00:56:46.260Z,3.25
2023-01-04T00:59:14.759Z,2.50
2023-01-04T01:01:42.319Z,2.50
2023-01-04T01:04:11.148Z,1.80
2023-01-04T01:06:39.890Z,2.15
2023-01-04T01:09:07.357Z,1.73
2023-01-04T01:11:36.569Z,2.75
2023-01-04T01:14:04.242Z,2.13
2023-01-04T01:16:53.523Z,3.67
2023-01-04T01:19:19.032Z,2.42
2023-01-04T01:21:47.778Z,2.95
2023-01-04T01:24:16.638Z,2.78
2023-01-04T01:26:44.045Z,2.25
2023-01-04T01:29:11.464Z,2.78
2023-01-04T01:31:38.889Z,2.25
2023-01-04T01:34:06.303Z,2.75
2023-01-04T01:36:33.793Z,2.35
2023-01-04T01:39:02.520Z,2.40
2023-01-04T01:41:30.713Z,2.75
2023-01-04T01:43:59.402Z,1.73
2023-01-04T01:46:28.384Z,2.15
2023-01-04T01:48:57.869Z,2.55
2023-01-04T01:51:25.242Z,1.83
2023-01-04T01:53:55.262Z,2.22
2023-01-04T01:56:23.926Z,2.75
2023-01-04T01:58:53.161Z,1.85
2023-01-04T02:01:20.617Z,2.63
2023-01-04T02:03:48.151Z,2.35
2023-01-04T02:06:18.861Z,2.85
2023-01-04T02:08:46.254Z,2.15
2023-01-04T02:11:13.606Z,2.30
2023-01-04T02:14:00.167Z,2.88
2023-01-04T02:16:33.728Z,2.03
2023-01-04T02:19:07.002Z,2.45
2023-01-04T02:21:37.871Z,2.42
2023-01-04T02:24:27.255Z,2.30
2023-01-04T02:27:29.577Z,2.58
2023-01-04T02:30:44.364Z,3.22
2023-01-04T02:33:19.765Z,1.67
2023-01-04T02:35:51.747Z,3.17
2023-01-04T02:38:22.477Z,1.90
2023-01-04T02:40:52.558Z,2.85
2023-01-04T02:43:39.080Z,2.28
2023-01-04T02:46:07.496Z,2.15
2023-01-04T02:48:54.989Z,2.97
2023-01-04T02:51:30.491Z,2.17
2023-01-04T02:53:58.371Z,2.30
2023-01-04T02:56:35.410Z,2.05
2023-01-04T02:59:19.425Z,2.50
2023-01-04T03:02:08.941Z,2.65
2023-01-04T03:05:03.313Z,2.42
2023-01-04T03:07:35.561Z,2.67
2023-01-04T03:10:06.546Z,2.83
2023-01-04T03:12:35.298Z,2.67
2023-01-04T03:15:05.307Z,2.28
2023-01-04T03:17:35.311Z,2.55
2023-01-04T03:20:04.398Z,1.90
2023-01-04T03:22:52.750Z,2.05
2023-01-04T03:25:40.285Z,4.10
2023-01-04T03:28:25.101Z,1.80
2023-01-04T03:31:12.637Z,2.17
2023-01-04T03:33:57.503Z,3.17
2023-01-04T03:36:33.423Z,2.95
2023-01-04T03:39:20.243Z,2.20
2023-01-04T03:42:06.584Z,2.00
2023-01-04T03:44:54.076Z,3.38
2023-01-04T03:47:41.356Z,2.63
2023-01-04T03:50:11.564Z,3.35
2023-01-04T03:55:07.892Z,2.03
2023-01-04T03:57:35.267Z,2.13
2023-01-04T04:00:05.192Z,2.80
2023-01-04T04:02:32.902Z,3.28
2023-01-04T04:05:17.969Z,2.75
2023-01-04T04:08:04.522Z,3.03
2023-01-04T04:10:31.895Z,2.75
2023-01-04T04:12:59.283Z,3.47
2023-01-04T04:15:26.675Z,2.95
2023-01-04T04:17:54.075Z,4.35
2023-01-04T04:20:21.445Z,2.88
2023-01-04T04:22:50.128Z,2.03
2023-01-04T04:25:17.724Z,2.75
2023-01-04T04:27:45.132Z,3.00
2023-01-04T04:30:13.011Z,2.22
2023-01-04T04:32:40.392Z,2.40
2023-01-04T04:35:08.387Z,3.53
2023-01-04T04:37:37.080Z,3.13
2023-01-04T04:40:06.235Z,2.05
2023-01-04T04:42:32.983Z,3.42
2023-01-04T04:45:00.407Z,2.60
2023-01-04T04:47:27.773Z,2.75
2023-01-04T04:49:55.147Z,2.00
2023-01-04T04:52:22.547Z,2.47
2023-01-04T04:54:49.947Z,2.85
2023-01-04T04:57:18.667Z,3.88
2023-01-04T04:59:46.069Z,2.55
2023-01-04T05:02:13.534Z,2.78
2023-01-04T05:04:41.035Z,1.70
2023-01-04T05:07:12.459Z,2.65
2023-01-04T05:09:40.254Z,2.75
2023-01-04T05:12:25.579Z,1.58
2023-01-04T05:14:54.351Z,2.17
2023-01-04T05:17:21.725Z,2.53
2023-01-04T05:19:49.128Z,4.40
2023-01-04T05:22:16.531Z,2.42
2023-01-04T05:24:43.952Z,2.63
2023-01-04T05:27:11.340Z,2.20
2023-01-04T05:29:56.705Z,2.25
2023-01-04T05:32:25.383Z,2.28
2023-01-04T05:34:52.781Z,2.78
2023-01-04T05:37:20.255Z,2.10
2023-01-04T05:39:47.638Z,2.15
2023-01-04T05:42:27.863Z,1.92
2023-01-04T05:47:22.664Z,3.30
2023-01-04T05:49:51.381Z,2.30
2023-01-04T05:52:18.808Z,3.28
2023-01-04T05:54:46.264Z,1.75
2023-01-04T05:57:13.845Z,1.95
2023-01-04T05:59:42.284Z,1.92
2023-01-04T06:02:14.482Z,1.67
2023-01-04T06:04:41.935Z,1.98
2023-01-04T06:09:32.477Z,1.60
2023-01-04T06:11:59.874Z,1.48
2023-01-04T06:14:27.255Z,1.98
2023-01-04T06:16:54.652Z,1.60
2023-01-04T06:19:22.113Z,2.38
2023-01-04T06:21:49.477Z,3.05
2023-01-04T06:24:16.854Z,1.67
2023-01-04T06:26:45.641Z,2.33
2023-01-04T06:29:13.203Z,1.48
2023-01-04T06:31:40.586Z,1.60
2023-01-04T06:34:07.997Z,2.15
2023-01-04T06:36:35.881Z,1.52
2023-01-04T06:39:03.271Z,1.63
2023-01-04T06:41:30.661Z,3.25
2023-01-04T06:43:59.347Z,9.80
2023-01-04T06:46:26.817Z,5.25
2023-01-04T06:48:54.221Z,5.75
2023-01-04T06:51:21.611Z,4.20
2023-01-04T06:53:49.027Z,2.45
2023-01-04T06:56:16.431Z,4.30
2023-01-04T06:58:43.851Z,6.60
2023-01-04T07:01:12.775Z,3.90
2023-01-04T07:03:40.295Z,5.07
2023-01-04T07:06:08.210Z,3.72
2023-01-04T07:08:35.912Z,1.85
2023-01-04T07:11:03.303Z,5.10
2023-01-04T07:13:30.776Z,4.32
2023-01-04T07:15:58.171Z,3.95
2023-01-04T07:18:26.863Z,3.88
2023-01-04T07:20:54.263Z,3.72
2023-01-04T07:23:21.636Z,3.90
2023-01-04T07:25:49.022Z,3.95
2023-01-04T07:28:37.684Z,3.58
2023-01-04T07:31:06.329Z,2.70
2023-01-04T07:33:35.030Z,2.65
2023-01-04T07:36:03.884Z,3.45
2023-01-04T07:38:31.269Z,2.13
2023-01-04T07:40:58.696Z,1.75
2023-01-04T07:43:28.592Z,3.70
2023-01-04T07:48:23.719Z,1.80
2023-01-04T07:50:52.399Z,4.60
2023-01-04T07:53:19.768Z,2.63
2023-01-04T08:00:43.000Z,2.25
2023-01-04T08:03:10.400Z,4.35
2023-01-04T08:05:37.805Z,1.85
2023-01-04T08:08:05.549Z,3.47
2023-01-04T08:10:32.924Z,2.47
2023-01-04T08:13:00.534Z,3.92
2023-01-04T08:15:27.983Z,3.35
2023-01-04T08:17:57.922Z,6.10
2023-01-04T08:20:25.292Z,3.50
2023-01-04T08:22:52.692Z,3.35
2023-01-04T08:25:20.080Z,2.92
2023-01-04T08:27:47.431Z,4.90
2023-01-04T08:30:15.166Z,5.20
2023-01-04T08:32:42.549Z,4.88
2023-01-04T08:35:11.259Z,5.50
2023-01-04T08:37:38.689Z,6.22
2023-01-04T08:40:07.100Z,18.10
2023-01-04T08:42:34.497Z,34.75
2023-01-04T08:45:02.268Z,25.27
2023-01-04T08:47:29.938Z,31.25
2023-01-04T08:49:57.378Z,18.23
2023-01-04T08:52:26.246Z,24.65
2023-01-04T08:54:54.049Z,21.02
2023-01-04T08:57:21.464Z,17.02
2023-01-04T08:59:48.826Z,14.48
2023-01-04T09:02:21.524Z,6.60
2023-01-04T09:04:49.280Z,11.90
2023-01-04T09:07:16.954Z,6.78
2023-01-04T09:09:45.668Z,9.50
2023-01-04T09:12:13.096Z,9.27
2023-01-04T09:14:40.489Z,10.27
2023-01-04T09:17:07.861Z,6.45
2023-01-04T09:19:35.286Z,9.00
2023-01-04T09:22:02.795Z,8.23
2023-01-04T09:24:30.208Z,7.75
2023-01-04T09:26:58.920Z,7.35
2023-01-04T09:29:27.318Z,9.77
2023-01-04T09:31:54.746Z,8.60
2023-01-04T09:34:22.309Z,7.38
2023-01-04T09:36:50.373Z,10.93
2023-01-04T09:39:22.845Z,7.97
2023-01-04T09:41:54.328Z,3.83
2023-01-04T09:44:54.375Z,6.28
2023-01-04T09:47:18.877Z,8.32
2023-01-04T09:49:47.426Z,5.68
2023-01-04T09:52:17.006Z,4.53
2023-01-04T09:54:45.871Z,5.45
2023-01-04T09:57:18.125Z,3.80
2023-01-04T09:59:46.845Z,5.55
2023-01-04T10:02:16.494Z,4.45
2023-01-04T10:04:45.705Z,6.20
2023-01-04T10:07:18.077Z,4.28
2023-01-04T10:09:45.455Z,4.57
2023-01-04T10:12:20.352Z,7.05
2023-01-04T10:14:55.862Z,3.80
2023-01-04T10:18:13.642Z,6.60
2023-01-04T10:23:22.950Z,6.68
2023-01-04T10:25:52.897Z,3.60
2023-01-04T10:28:31.261Z,7.13
2023-01-04T10:31:40.321Z,6.75
2023-01-04T10:33:51.425Z,5.05
2023-01-04T10:36:20.048Z,8.60
2023-01-04T10:38:47.702Z,3.30
2023-01-04T10:41:24.468Z,5.88
2023-01-04T10:44:10.530Z,3.90
2023-01-04T10:46:44.651Z,5.15
2023-01-04T10:49:13.367Z,4.60
2023-01-04T10:51:43.338Z,3.25
2023-01-04T10:54:14.435Z,3.60
2023-01-04T10:56:45.480Z,4.28
2023-01-04T10:59:14.507Z,5.43
2023-01-04T11:01:44.939Z,3.25
2023-01-04T11:04:14.421Z,4.50
2023-01-04T11:06:43.097Z,5.05
2023-01-04T11:09:13.433Z,6.80
2023-01-04T11:11:42.007Z,4.60
2023-01-04T11:14:10.208Z,4.05
2023-01-04T11:16:37.871Z,4.00
2023-01-04T11:19:06.558Z,2.63
2023-01-04T11:21:36.512Z,6.90
2023-01-04T11:24:30.170Z,4.72
2023-01-04T11:26:52.480Z,3.63
2023-01-04T11:29:27.208Z,3.33
2023-01-04T11:31:56.071Z,2.78
2023-01-04T11:34:45.451Z,2.65
2023-01-04T11:37:25.334Z,3.70
2023-01-04T11:39:52.725Z,3.25
2023-01-04T11:42:20.940Z,3.75
2023-01-04T11:44:58.598Z,2.47
2023-01-04T11:47:29.834Z,1.95
2023-01-04T11:50:01.800Z,4.03
2023-01-04T11:52:31.529Z,2.08
2023-01-04T11:55:11.191Z,2.20
2023-01-04T11:57:38.577Z,2.15
2023-01-04T12:00:09.555Z,3.15
2023-01-04T12:05:29.956Z,3.53
2023-01-04T12:07:58.218Z,9.38
2023-01-04T12:10:27.058Z,4.45
2023-01-04T12:12:54.824Z,6.10
2023-01-04T12:15:26.423Z,16.80
2023-01-04T12:17:56.198Z,13.32
2023-01-04T12:20:23.572Z,27.80
2023-01-04T12:22:52.330Z,19.83
2023-01-04T12:25:26.569Z,18.65
2023-01-04T12:27:55.253Z,12.80
2023-01-04T12:30:36.524Z,11.90
2023-01-04T12:33:37.200Z,14.18
2023-01-04T12:36:06.299Z,9.50
2023-01-04T12:39:00.891Z,8.85
2023-01-04T12:42:19.130Z,7.43
2023-01-04T12:45:00.759Z,5.35
2023-01-04T12:48:07.668Z,8.65
2023-01-04T12:51:13.194Z,7.82
2023-01-04T12:53:57.392Z,8.88
2023-01-04T12:56:40.992Z,5.35
2023-01-04T12:59:26.523Z,6.68
2023-01-04T13:02:17.353Z,5.03
2023-01-04T13:04:44.935Z,6.45
2023-01-04T13:07:16.782Z,6.30
2023-01-04T13:09:48.536Z,3.78
2023-01-04T13:12:46.370Z,6.28
2023-01-04T13:15:19.711Z,4.70
2023-01-04T13:17:47.219Z,4.18
2023-01-04T13:20:18.826Z,3.80
2023-01-04T13:22:49.840Z,1.83
2023-01-04T13:25:17.662Z,3.55
2023-01-04T13:27:57.356Z,5.97
2023-01-04T13:30:35.582Z,4.07
2023-01-04T13:33:27.839Z,3.60
2023-01-04T13:36:01.366Z,2.60
2023-01-04T13:38:28.746Z,1.90
2023-01-04T13:40:56.136Z,1.95
2023-01-04T13:43:46.161Z,2.72
2023-01-04T13:46:15.306Z,2.35
2023-01-04T13:48:43.535Z,2.37
2023-01-04T13:51:16.910Z,1.85
2023-01-04T13:53:52.915Z,3.58
2023-01-04T13:56:21.192Z,2.40
2023-01-04T13:58:49.876Z,3.10
2023-01-04T14:01:19.986Z,1.77
2023-01-04T14:03:48.444Z,1.60
2023-01-04T14:06:18.398Z,2.05
2023-01-04T14:08:48.988Z,2.20
2023-01-04T14:11:39.734Z,2.30
2023-01-04T14:14:17.758Z,1.85
2023-01-04T14:16:45.148Z,4.00
2023-01-04T14:19:28.064Z,3.30
2023-01-04T14:21:55.476Z,1.48
2023-01-04T14:25:07.712Z,2.08
2023-01-04T14:27:32.853Z,2.35
2023-01-04T14:30:01.552Z,1.08
2023-01-04T14:32:28.952Z,3.45
2023-01-04T14:34:56.401Z,1.25
2023-01-04T14:37:23.786Z,1.85
2023-01-04T14:39:51.173Z,1.70
2023-01-04T14:42:25.411Z,1.75
2023-01-04T14:44:52.816Z,1.77
2023-01-04T14:47:21.522Z,2.40
2023-01-04T14:49:49.126Z,2.75
2023-01-04T14:52:21.687Z,1.65
2023-01-04T14:54:49.108Z,1.30
2023-01-04T14:57:16.489Z,1.65
2023-01-04T14:59:45.880Z,4.07
2023-01-04T15:02:13.447Z,1.35
2023-01-04T15:04:42.303Z,1.85
2023-01-04T15:07:35.094Z,1.27
2023-01-04T15:10:02.844Z,5.18
2023-01-04T15:12:30.294Z,2.53
2023-01-04T15:14:57.688Z,4.90
2023-01-04T15:17:25.072Z,1.40
2023-01-04T15:19:53.744Z,2.53
2023-01-04T15:22:21.198Z,1.13
2023-01-04T15:24:48.581Z,1.67
2023-01-04T15:27:15.964Z,2.55
2023-01-04T15:29:43.343Z,2.58
2023-01-04T15:32:10.781Z,1.60
2023-01-04T15:34:43.224Z,3.00
2023-01-04T15:37:21.811Z,2.83
2023-01-04T15:39:54.242Z,3.65
2023-01-04T15:42:43.481Z,3.42
2023-01-04T15:45:11.219Z,3.17
2023-01-04T15:47:38.602Z,1.70
2023-01-04T15:50:06.572Z,1.92
2023-01-04T15:52:35.291Z,3.13
2023-01-04T15:55:02.677Z,2.53
2023-01-04T15:57:30.105Z,2.03
2023-01-04T15:59:57.583Z,5.72
2023-01-04T16:02:25.144Z,1.83
2023-01-04T16:04:52.694Z,2.83
2023-01-04T16:07:20.141Z,2.05
2023-01-04T16:09:48.871Z,2.28
2023-01-04T16:12:33.990Z,2.20
2023-01-04T16:15:01.395Z,2.42
2023-01-04T16:17:28.799Z,2.33
2023-01-04T16:19:56.183Z,3.63
2023-01-04T16:22:23.619Z,3.17
2023-01-04T16:27:39.681Z,1.55
2023-01-04T16:30:08.725Z,2.63
2023-01-04T16:32:36.394Z,2.22
2023-01-04T16:35:04.265Z,3.45
2023-01-04T16:37:31.697Z,2.78
2023-01-04T16:40:08.825Z,2.40
2023-01-04T16:42:36.851Z,2.30
2023-01-04T16:45:04.433Z,2.25
2023-01-04T16:47:38.181Z,2.25
2023-01-04T16:50:07.035Z,2.97
2023-01-04T16:52:34.433Z,1.75
2023-01-04T16:55:03.142Z,2.20
2023-01-04T16:57:30.564Z,2.08
2023-01-04T16:59:57.995Z,2.53
2023-01-04T17:02:25.501Z,1.90
2023-01-04T17:04:56.872Z,2.05
2023-01-04T17:07:24.393Z,2.45
2023-01-04T17:09:51.777Z,2.17
2023-01-04T17:17:57.683Z,2.58
2023-01-04T17:20:25.056Z,2.25
2023-01-04T17:22:52.452Z,2.53
2023-01-04T17:25:20.219Z,3.08
2023-01-04T17:27:48.912Z,2.20
2023-01-04T17:30:16.273Z,4.15
2023-01-04T17:32:43.666Z,2.33
2023-01-04T17:35:11.043Z,2.22
2023-01-04T17:37:38.435Z,2.67
2023-01-04T17:40:06.628Z,3.10
2023-01-04T17:42:34.070Z,1.92
2023-01-04T17:45:02.807Z,3.45
2023-01-04T17:47:30.197Z,4.00
2023-01-04T17:49:57.579Z,1.85
2023-01-04T17:52:30.906Z,2.60
2023-01-04T17:54:58.994Z,1.75
2023-01-04T17:57:27.075Z,2.33
2023-01-04T17:59:54.463Z,3.20
2023-01-04T18:02:23.224Z,4.05
2023-01-04T18:04:50.669Z,4.40
2023-01-04T18:07:19.847Z,3.53
2023-01-04T18:09:47.230Z,4.50
2023-01-04T18:12:14.604Z,5.40
2023-01-04T18:14:42.001Z,4.50
2023-01-04T18:17:09.424Z,3.97
2023-01-04T18:19:40.358Z,3.25
2023-01-04T18:22:09.087Z,2.72
2023-01-04T18:24:38.249Z,2.40
2023-01-04T18:27:24.295Z,3.35
2023-01-04T18:29:53.387Z,3.63
2023-01-04T18:32:21.125Z,3.22
2023-01-04T18:34:49.937Z,3.45
2023-01-04T18:37:18.421Z,3.67
2023-01-04T18:39:46.231Z,3.58
2023-01-04T18:42:13.685Z,3.47
2023-01-04T18:44:47.982Z,4.18
2023-01-04T18:47:16.200Z,3.22
2023-01-04T18:49:43.659Z,2.67
2023-01-04T18:52:12.391Z,3.47
2023-01-04T18:54:39.777Z,3.42
2023-01-04T18:57:07.401Z,2.17
2023-01-04T18:59:34.825Z,3.85
2023-01-04T19:02:03.110Z,4.90
2023-01-04T19:04:31.510Z,4.07
2023-01-04T19:06:58.941Z,4.53
2023-01-04T19:09:27.669Z,3.55
2023-01-04T19:11:55.045Z,4.85
2023-01-04T19:14:22.729Z,4.03
2023-01-04T19:16:50.143Z,3.45
2023-01-04T19:19:17.548Z,4.78
2023-01-04T19:21:45.944Z,3.92
2023-01-04T19:24:13.338Z,3.42
2023-01-04T19:26:42.044Z,4.30
2023-01-04T19:29:09.477Z,4.72
2023-01-04T19:31:37.044Z,3.70
2023-01-04T19:34:04.572Z,3.45
2023-01-04T19:36:31.970Z,5.10
2023-01-04T19:38:59.424Z,5.88
2023-01-04T19:41:33.947Z,3.03
2023-01-04T19:44:03.548Z,4.57
2023-01-04T19:46:31.775Z,3.95
2023-01-04T19:48:59.727Z,4.43
2023-01-04T19:51:28.291Z,4.30
2023-01-04T19:53:55.660Z,4.70
2023-01-04T19:56:23.087Z,4.90
2023-01-04T19:58:50.642Z,4.35
2023-01-04T20:01:20.526Z,5.50
2023-01-04T20:03:48.100Z,3.38
2023-01-04T20:06:15.836Z,8.25
2023-01-04T20:08:43.477Z,4.75
2023-01-04T20:11:11.032Z,4.00
2023-01-04T20:13:38.750Z,4.65
2023-01-04T20:16:07.529Z,4.55
2023-01-04T20:18:36.561Z,5.72
2023-01-04T20:21:09.355Z,6.53
2023-01-04T20:23:36.849Z,7.28
2023-01-04T20:26:11.236Z,6.72
2023-01-04T20:28:39.375Z,7.07
2023-01-04T20:31:07.714Z,4.70
2023-01-04T20:33:36.437Z,8.23
2023-01-04T20:36:07.427Z,4.38
2023-01-04T20:38:39.952Z,5.70
2023-01-04T20:41:08.143Z,6.25
2023-01-04T20:43:34.634Z,6.57
2023-01-04T20:46:02.146Z,7.38
2023-01-04T20:48:29.616Z,5.20
2023-01-04T20:50:58.317Z,6.05
2023-01-04T20:53:25.702Z,6.60
2023-01-04T20:55:53.087Z,5.07
2023-01-04T20:58:20.479Z,6.45
2023-01-04T21:00:47.958Z,7.15
2023-01-04T21:03:15.729Z,7.82
2023-01-04T21:05:44.001Z,4.68
2023-01-04T21:08:12.860Z,4.07
2023-01-04T21:10:41.073Z,5.07
2023-01-04T21:13:08.436Z,6.38
2023-01-04T21:15:36.608Z,4.88
2023-01-04T21:18:04.063Z,6.13
2023-01-04T21:20:31.442Z,7.00
2023-01-04T21:22:58.840Z,4.97
2023-01-04T21:25:27.599Z,5.82
2023-01-04T21:27:54.968Z,8.80
2023-01-04T21:30:22.373Z,5.55
2023-01-04T21:32:49.797Z,4.00
2023-01-04T21:35:17.383Z,4.97
2023-01-04T21:37:44.773Z,4.32
2023-01-04T21:40:13.120Z,6.28
2023-01-04T21:42:41.823Z,6.32
2023-01-04T21:45:09.780Z,3.83
2023-01-04T21:47:37.712Z,6.05
2023-01-04T21:50:05.401Z,5.28
2023-01-04T21:52:32.820Z,6.53
2023-01-04T21:55:00.252Z,4.25
2023-01-04T21:57:27.659Z,5.53
2023-01-04T21:59:56.355Z,6.45
2023-01-04T22:02:23.847Z,5.68
2023-01-04T22:04:51.277Z,4.95
2023-01-04T22:07:18.663Z,7.13
2023-01-04T22:09:46.080Z,6.20
2023-01-04T22:12:13.447Z,4.68
2023-01-04T22:14:40.832Z,4.68
2023-01-04T22:17:09.543Z,8.18
2023-01-04T22:19:36.921Z,6.88
2023-01-04T22:22:04.278Z,6.38
2023-01-04T22:24:37.490Z,7.28
2023-01-04T22:27:05.523Z,7.00
2023-01-04T22:29:33.008Z,8.73
2023-01-04T22:32:00.504Z,8.20
2023-01-04T22:34:29.488Z,9.80
2023-01-04T22:36:56.848Z,8.70
2023-01-04T22:39:24.255Z,8.98
2023-01-04T22:41:51.623Z,8.38
2023-01-04T22:44:18.998Z,6.22
2023-01-04T22:46:46.391Z,8.48
2023-01-04T22:49:13.776Z,9.82
2023-01-04T22:51:42.477Z,10.60
2023-01-04T22:54:10.447Z,9.48
2023-01-04T22:56:37.834Z,8.88
2023-01-04T22:59:05.203Z,10.65
2023-01-04T23:01:33.903Z,7.40
2023-01-04T23:04:01.716Z,8.82
2023-01-04T23:06:29.468Z,7.65
2023-01-04T23:08:59.429Z,8.95
2023-01-04T23:11:26.956Z,8.13
2023-01-04T23:13:54.354Z,10.18
2023-01-04T23:16:26.277Z,10.30
2023-01-04T23:18:55.423Z,12.35
2023-01-04T23:21:22.838Z,8.02
2023-01-04T23:23:50.475Z,9.02
2023-01-04T23:26:21.707Z,9.55
2023-01-04T23:28:49.280Z,9.35
2023-01-04T23:31:17.733Z,8.88
2023-01-04T23:33:45.142Z,8.95
2023-01-04T23:36:13.597Z,9.32
2023-01-04T23:38:41.285Z,8.93
2023-01-04T23:41:08.762Z,9.13
2023-01-04T23:43:38.149Z,12.02
2023-01-04T23:48:36.149Z,7.90
2023-01-04T23:51:03.599Z,7.20
2023-01-04T23:53:31.104Z,8.55
2023-01-04T23:55:59.652Z,8.60
2023-01-04T23:58:27.770Z,11.13
